Cala Pula — IBID — position and weather

sailwx.info

Track history (hours):
 
Tides and Currents Weather Stations Pressure Air Temp Water Temp Dewpoint Dewpoint Depression Visibility Wind Speed Wind Dir Waves Ship Positions

Cala Pula

Last reported at 2018-Jun-13 23:44 UTC. Time now 2018-Jun-21 01:03 UTC.
Position N 35°45' W 013°29'.

Length 189 m; draft 7.3 m.

Type: Cargo ship. MMSI: 247585000.

Date/timePositionNaut miles runAvg speedWind from/ knotsBaromVisibWave heightAir tempDewpointWater temp
2018-Jun-13 23:44N 35°45' W 013°29'621.1
2018-Jun-13 23:28N 35°45' W 013°22'36120.7
2018-Jun-13 06:03N 35°57' W 005°57'118.9
2018-Jun-13 05:58N 35°57' W 005°55'918.3
2018-Jun-13 05:30N 35°57' W 005°44'816.9
2018-Jun-13 05:00N 35°58' W 005°34'917.5
2018-Jun-13 04:30N 36°00' W 005°24'917.3
2018-Jun-13 04:00N 36°03' W 005°14'816.5
2018-Jun-13 03:30N 36°03' W 005°03'19519.1
2018-Jun-12 17:19N 37°06' W 001°14'620.5
2018-Jun-12 17:00N 37°10' W 001°08'1020.6
2018-Jun-12 16:30N 37°17' W 000°58'1020.5
2018-Jun-12 16:00N 37°24' W 000°48'1120.3
2018-Jun-12 15:27N 37°31' W 000°38'920.6
2018-Jun-12 15:00N 37°38' W 000°29'1120.6
2018-Jun-12 14:27N 37°48' W 000°22'920.4
2018-Jun-12 14:00N 37°55' W 000°16'1020.4
2018-Jun-12 13:30N 38°04' W 000°08'1020.5
2018-Jun-12 13:00N 38°12' W 000°01'1020.5
2018-Jun-12 12:30N 38°20' E 000°07'175 8.9
2018-Jun-11 16:53N 41°03' E 001°31'820.0
2018-Jun-11 16:30N 41°04' E 001°41'1019.9
2018-Jun-11 16:00N 41°05' E 001°55'1020.2
2018-Jun-11 15:30N 41°07' E 002°07'1020.8
2018-Jun-11 15:00N 41°11' E 002°20'1021.1
2018-Jun-11 14:30N 41°16' E 002°33'1120.9
2018-Jun-11 14:00N 41°21' E 002°45'1121.4
2018-Jun-11 13:30N 41°26' E 002°57'19321.1
2018-Jun-11 04:20N 43°00' E 006°46'821.1
2018-Jun-11 03:58N 43°05' E 006°53'1020.8
2018-Jun-11 03:30N 43°11' E 007°04'1121.1
2018-Jun-11 03:00N 43°18' E 007°15'1121.4
2018-Jun-11 02:30N 43°24' E 007°27'1121.5
2018-Jun-11 02:00N 43°31' E 007°38'1121.5
2018-Jun-11 01:30N 43°38' E 007°50'1121.4
2018-Jun-11 01:00N 43°45' E 008°01'1121.7
2018-Jun-11 00:30N 43°52' E 008°13'1121.6
2018-Jun-11 00:00N 44°01' E 008°21'1121.6
2018-Jun-10 23:30N 44°10' E 008°28'611.8
2018-Jun-10 23:00N 44°16' E 008°28'1 1.3
2018-Jun-10 22:30N 44°16' E 008°27'0 0.0
2018-Jun-10 21:57N 44°16' E 008°27'0 0.0
2018-Jun-10 21:30N 44°16' E 008°27'0 0.0
2018-Jun-10 21:00N 44°16' E 008°27'0 0.0
2018-Jun-10 20:30N 44°16' E 008°27'0 0.0
2018-Jun-10 20:00N 44°16' E 008°27'0 0.0
2018-Jun-10 19:30N 44°16' E 008°27'0 0.0
2018-Jun-10 19:00N 44°16' E 008°27'0 0.0
2018-Jun-10 18:30N 44°16' E 008°27'0 0.0
2018-Jun-10 18:00N 44°16' E 008°27'0 0.0
2018-Jun-10 17:30N 44°16' E 008°27'0 0.0
2018-Jun-10 17:00N 44°16' E 008°27'0 0.0
2018-Jun-10 16:30N 44°16' E 008°27'0 0.0
2018-Jun-10 16:00N 44°16' E 008°27'0 0.0
2018-Jun-10 15:30N 44°16' E 008°27'0 0.0
2018-Jun-10 15:00N 44°16' E 008°27'0 0.0
2018-Jun-10 14:30N 44°16' E 008°27'0 0.0
2018-Jun-10 13:30N 44°16' E 008°27'0 0.0
2018-Jun-10 13:00N 44°16' E 008°27'0 0.0
2018-Jun-10 12:30N 44°16' E 008°27'0 0.0
2018-Jun-10 12:00N 44°16' E 008°27'0 0.0
2018-Jun-10 11:30N 44°16' E 008°27'0 0.0
2018-Jun-10 11:00N 44°16' E 008°27'0 0.0
2018-Jun-10 10:27N 44°16' E 008°27'0 0.0
2018-Jun-10 10:00N 44°16' E 008°27'0 0.0
2018-Jun-10 09:30N 44°16' E 008°27'0 0.0
2018-Jun-10 09:00N 44°16' E 008°27'0 0.0
2018-Jun-10 08:30N 44°16' E 008°27'0 0.0
2018-Jun-10 08:00N 44°16' E 008°27'0 0.0
2018-Jun-10 07:30N 44°16' E 008°27'0 0.0
2018-Jun-10 06:57N 44°16' E 008°27'0 0.0
2018-Jun-10 06:27N 44°16' E 008°27'0 0.0
2018-Jun-10 06:00N 44°16' E 008°27'0 0.0
2018-Jun-10 05:30N 44°16' E 008°27'0 0.0
2018-Jun-10 04:57N 44°16' E 008°27'0 0.0
2018-Jun-10 04:26N 44°16' E 008°27'1 2.6
2018-Jun-10 04:00N 44°16' E 008°29'5 9.1
2018-Jun-10 03:31N 44°12' E 008°31'3 6.2
2018-Jun-10 03:01N 44°09' E 008°30'816.5
2018-Jun-10 02:31N 44°01' E 008°28'1120.1
2018-Jun-10 01:59N 43°53' E 008°18'2620.0
2018-Jun-10 00:40N 43°38' E 007°49'1020.2
2018-Jun-10 00:10N 43°31' E 007°38'720.2
2018-Jun-09 23:50N 43°26' E 007°31'620.1
2018-Jun-09 23:31N 43°22' E 007°25'1020.2
2018-Jun-09 23:00N 43°15' E 007°15'1020.2
2018-Jun-09 22:30N 43°10' E 007°03'2920.2
2018-Jun-09 21:04N 42°52' E 006°31'120.6
2018-Jun-09 21:00N 42°51' E 006°30'1020.4
2018-Jun-09 20:31N 42°44' E 006°20'3620.7
2018-Jun-09 18:45N 42°20' E 005°43'521.0
2018-Jun-09 18:30N 42°17' E 005°38'1021.0
2018-Jun-09 18:00N 42°10' E 005°28'1020.9
2018-Jun-09 17:30N 42°02' E 005°17'1021.1
2018-Jun-09 17:00N 41°56' E 005°06'1221.2
2018-Jun-09 16:25N 41°47' E 004°54'921.2
2018-Jun-09 16:00N 41°41' E 004°46'1521.3
2018-Jun-09 15:19N 41°31' E 004°31'2421.2
2018-Jun-09 14:11N 41°15' E 004°08'421.4
2018-Jun-09 14:00N 41°12' E 004°04'1121.4
2018-Jun-09 13:30N 41°05' E 003°53'1121.4
2018-Jun-09 13:00N 40°58' E 003°43'1121.5
2018-Jun-09 12:30N 40°51' E 003°32'1521.7
2018-Jun-09 11:48N 40°41' E 003°17'1821.4
2018-Jun-09 10:58N 40°28' E 002°60'1721.6
2018-Jun-09 10:11N 40°17' E 002°43'421.6
2018-Jun-09 10:00N 40°15' E 002°40'1121.6
2018-Jun-09 09:30N 40°07' E 002°29'1121.5
2018-Jun-09 09:00N 39°60' E 002°19'12221.2
2018-Jun-09 03:14N 38°36' E 000°24'721.2
2018-Jun-09 02:55N 38°31' E 000°19'921.5
2018-Jun-09 02:30N 38°24' E 000°12'1121.8
2018-Jun-09 02:00N 38°14' E 000°05'1121.7
2018-Jun-09 01:30N 38°05' W 000°02'1121.9
2018-Jun-09 00:59N 37°56' W 000°10'1121.8
2018-Jun-09 00:30N 37°47' W 000°18'1021.5
2018-Jun-09 00:00N 37°38' W 000°26'1121.5
2018-Jun-08 23:30N 37°30' W 000°34'1121.7
2018-Jun-08 23:00N 37°23' W 000°44'1121.8
2018-Jun-08 22:30N 37°16' W 000°55'2321.8
2018-Jun-08 21:27N 37°01' W 001°17'20021.2
2018-Jun-08 12:01N 35°59' W 005°13'023.9
2018-Jun-08 12:00N 35°59' W 005°13'1223.4
2018-Jun-08 11:31N 35°57' W 005°27'21918.3
2018-Jun-07 23:32N 37°36' W 009°32'021.2
2018-Jun-07 23:31N 37°36' W 009°31'1121.4
2018-Jun-07 23:00N 37°47' W 009°30'1020.6
2018-Jun-07 22:30N 37°57' W 009°28'1020.9
2018-Jun-07 22:01N 38°05' W 009°20'1020.7
2018-Jun-07 21:31N 38°13' W 009°12'919.0
2018-Jun-07 21:01N 38°21' W 009°04'714.9
2018-Jun-07 20:31N 38°27' W 008°58'510.2
2018-Jun-07 20:00N 38°31' W 008°54'1 2.1
2018-Jun-07 19:25N 38°31' W 008°53'0 0.0
2018-Jun-07 18:58N 38°31' W 008°53'0 0.0
2018-Jun-07 18:25N 38°31' W 008°53'0 0.0
2018-Jun-07 17:49N 38°31' W 008°53'0 0.0
2018-Jun-07 17:25N 38°31' W 008°53'0 0.0
2018-Jun-07 16:58N 38°31' W 008°53'0 0.0
2018-Jun-07 16:25N 38°31' W 008°53'0 0.0
2018-Jun-07 15:58N 38°31' W 008°53'0 0.0
2018-Jun-07 15:19N 38°31' W 008°53'0 0.0
2018-Jun-07 14:55N 38°31' W 008°53'0 0.0
2018-Jun-07 14:25N 38°31' W 008°53'0 0.0
2018-Jun-07 13:55N 38°31' W 008°53'0 0.0
2018-Jun-07 13:25N 38°31' W 008°53'0 0.0
2018-Jun-07 12:55N 38°31' W 008°53'0 0.0
2018-Jun-07 12:25N 38°31' W 008°53'0 0.0
2018-Jun-07 11:58N 38°31' W 008°53'0 0.0
2018-Jun-07 11:25N 38°31' W 008°53'0 0.0
2018-Jun-07 10:58N 38°31' W 008°53'0 0.0
2018-Jun-07 10:28N 38°31' W 008°53'0 0.0
2018-Jun-07 09:58N 38°31' W 008°53'0 0.0
2018-Jun-07 09:28N 38°31' W 008°53'0 0.0
2018-Jun-07 08:55N 38°31' W 008°53'0 0.0
2018-Jun-07 08:28N 38°31' W 008°53'0 0.0
2018-Jun-07 07:55N 38°31' W 008°53'0 0.0
2018-Jun-07 07:28N 38°31' W 008°53'0 0.4
2018-Jun-07 07:00N 38°31' W 008°53'2 4.5
2018-Jun-07 06:31N 38°30' W 008°55'612.1
2018-Jun-07 06:00N 38°25' W 009°00'612.6
2018-Jun-07 05:30N 38°21' W 009°06'917.3
2018-Jun-07 05:00N 38°19' W 009°17'1020.9
2018-Jun-07 04:30N 38°19' W 009°30'1121.1
2018-Jun-07 04:00N 38°19' W 009°43'1020.8
2018-Jun-07 03:30N 38°18' W 009°57'1020.7
2018-Jun-07 03:00N 38°18' W 010°10'1120.6
2018-Jun-07 02:29N 38°17' W 010°24'1120.6
2018-Jun-07 01:58N 38°17' W 010°37'1120.5
2018-Jun-07 01:27N 38°16' W 010°50'56320.7
2018-Jun-05 22:17N 37°09' W 022°37'1220.5
2018-Jun-05 21:42N 37°06' W 022°52'520.8
2018-Jun-05 21:27N 37°05' W 022°58'920.8
2018-Jun-05 21:00N 37°03' W 023°09'1520.9
2018-Jun-05 20:17N 37°01' W 023°28'621.0
2018-Jun-05 20:00N 36°60' W 023°35'1121.1
2018-Jun-05 19:31N 36°58' W 023°48'1121.1
2018-Jun-05 19:00N 36°56' W 024°01'1020.9
2018-Jun-05 18:30N 36°54' W 024°14'1020.9
2018-Jun-05 18:00N 36°52' W 024°27'1121.1
2018-Jun-05 17:31N 36°50' W 024°40'1121.2
2018-Jun-05 17:00N 36°47' W 024°52'1020.9
2018-Jun-05 16:30N 36°45' W 025°05'1121.2
2018-Jun-05 16:01N 36°42' W 025°18'1020.8
2018-Jun-05 15:30N 36°40' W 025°31'1020.4
2018-Jun-05 15:00N 36°38' W 025°43'1020.4
2018-Jun-05 14:30N 36°36' W 025°56'1020.3
2018-Jun-05 14:00N 36°34' W 026°08'1020.7
2018-Jun-05 13:30N 36°32' W 026°21'2120.5
2018-Jun-05 12:29N 36°27' W 026°46'1020.5
2018-Jun-05 12:00N 36°25' W 026°58'1020.7
2018-Jun-05 11:30N 36°22' W 027°10'1020.6
2018-Jun-05 11:00N 36°20' W 027°23'1120.7
2018-Jun-05 10:29N 36°17' W 027°36'1021.0
2018-Jun-05 10:00N 36°15' W 027°48'1121.0
2018-Jun-05 09:28N 36°13' W 028°01'1020.8
2018-Jun-05 09:00N 36°10' W 028°13'1120.9
2018-Jun-05 08:29N 36°08' W 028°26'3121.1
2018-Jun-05 07:00N 35°60' W 029°04'  
Track history (hours):
 
Tides and Currents Weather Stations Pressure Air Temp Water Temp Dewpoint Dewpoint Depression Visibility Wind Speed Wind Dir Waves Ship Positions

Cala Pula

Last reported at 2018-Jun-13 23:44 UTC. Time now 2018-Jun-21 01:03 UTC.
Position N 35°45' W 013°29'.

Length 189 m; draft 7.3 m.

Type: Cargo ship. MMSI: 247585000.

Date/timePositionNaut miles runAvg speedWind from/ knotsBaromVisibWave heightAir tempDewpointWater temp
2018-Jun-13 23:44N 35°45' W 013°29'621.1
2018-Jun-13 23:28N 35°45' W 013°22'36120.7
2018-Jun-13 06:03N 35°57' W 005°57'118.9
2018-Jun-13 05:58N 35°57' W 005°55'918.3
2018-Jun-13 05:30N 35°57' W 005°44'816.9
2018-Jun-13 05:00N 35°58' W 005°34'917.5
2018-Jun-13 04:30N 36°00' W 005°24'917.3
2018-Jun-13 04:00N 36°03' W 005°14'816.5
2018-Jun-13 03:30N 36°03' W 005°03'19519.1
2018-Jun-12 17:19N 37°06' W 001°14'620.5
2018-Jun-12 17:00N 37°10' W 001°08'1020.6
2018-Jun-12 16:30N 37°17' W 000°58'1020.5
2018-Jun-12 16:00N 37°24' W 000°48'1120.3
2018-Jun-12 15:27N 37°31' W 000°38'920.6
2018-Jun-12 15:00N 37°38' W 000°29'1120.6
2018-Jun-12 14:27N 37°48' W 000°22'920.4
2018-Jun-12 14:00N 37°55' W 000°16'1020.4
2018-Jun-12 13:30N 38°04' W 000°08'1020.5
2018-Jun-12 13:00N 38°12' W 000°01'1020.5
2018-Jun-12 12:30N 38°20' E 000°07'175 8.9
2018-Jun-11 16:53N 41°03' E 001°31'820.0
2018-Jun-11 16:30N 41°04' E 001°41'1019.9
2018-Jun-11 16:00N 41°05' E 001°55'1020.2
2018-Jun-11 15:30N 41°07' E 002°07'1020.8
2018-Jun-11 15:00N 41°11' E 002°20'1021.1
2018-Jun-11 14:30N 41°16' E 002°33'1120.9
2018-Jun-11 14:00N 41°21' E 002°45'1121.4
2018-Jun-11 13:30N 41°26' E 002°57'19321.1
2018-Jun-11 04:20N 43°00' E 006°46'821.1
2018-Jun-11 03:58N 43°05' E 006°53'1020.8
2018-Jun-11 03:30N 43°11' E 007°04'1121.1
2018-Jun-11 03:00N 43°18' E 007°15'1121.4
2018-Jun-11 02:30N 43°24' E 007°27'1121.5
2018-Jun-11 02:00N 43°31' E 007°38'1121.5
2018-Jun-11 01:30N 43°38' E 007°50'1121.4
2018-Jun-11 01:00N 43°45' E 008°01'1121.7
2018-Jun-11 00:30N 43°52' E 008°13'1121.6
2018-Jun-11 00:00N 44°01' E 008°21'1121.6
2018-Jun-10 23:30N 44°10' E 008°28'611.8
2018-Jun-10 23:00N 44°16' E 008°28'1 1.3
2018-Jun-10 22:30N 44°16' E 008°27'0 0.0
2018-Jun-10 21:57N 44°16' E 008°27'0 0.0
2018-Jun-10 21:30N 44°16' E 008°27'0 0.0
2018-Jun-10 21:00N 44°16' E 008°27'0 0.0
2018-Jun-10 20:30N 44°16' E 008°27'0 0.0
2018-Jun-10 20:00N 44°16' E 008°27'0 0.0
2018-Jun-10 19:30N 44°16' E 008°27'0 0.0
2018-Jun-10 19:00N 44°16' E 008°27'0 0.0
2018-Jun-10 18:30N 44°16' E 008°27'0 0.0
2018-Jun-10 18:00N 44°16' E 008°27'0 0.0
2018-Jun-10 17:30N 44°16' E 008°27'0 0.0
2018-Jun-10 17:00N 44°16' E 008°27'0 0.0
2018-Jun-10 16:30N 44°16' E 008°27'0 0.0
2018-Jun-10 16:00N 44°16' E 008°27'0 0.0
2018-Jun-10 15:30N 44°16' E 008°27'0 0.0
2018-Jun-10 15:00N 44°16' E 008°27'0 0.0
2018-Jun-10 14:30N 44°16' E 008°27'0 0.0
2018-Jun-10 13:30N 44°16' E 008°27'0 0.0
2018-Jun-10 13:00N 44°16' E 008°27'0 0.0
2018-Jun-10 12:30N 44°16' E 008°27'0 0.0
2018-Jun-10 12:00N 44°16' E 008°27'0 0.0
2018-Jun-10 11:30N 44°16' E 008°27'0 0.0
2018-Jun-10 11:00N 44°16' E 008°27'0 0.0
2018-Jun-10 10:27N 44°16' E 008°27'0 0.0
2018-Jun-10 10:00N 44°16' E 008°27'0 0.0
2018-Jun-10 09:30N 44°16' E 008°27'0 0.0
2018-Jun-10 09:00N 44°16' E 008°27'0 0.0
2018-Jun-10 08:30N 44°16' E 008°27'0 0.0
2018-Jun-10 08:00N 44°16' E 008°27'0 0.0
2018-Jun-10 07:30N 44°16' E 008°27'0 0.0
2018-Jun-10 06:57N 44°16' E 008°27'0 0.0
2018-Jun-10 06:27N 44°16' E 008°27'0 0.0
2018-Jun-10 06:00N 44°16' E 008°27'0 0.0
2018-Jun-10 05:30N 44°16' E 008°27'0 0.0
2018-Jun-10 04:57N 44°16' E 008°27'0 0.0
2018-Jun-10 04:26N 44°16' E 008°27'1 2.6
2018-Jun-10 04:00N 44°16' E 008°29'5 9.1
2018-Jun-10 03:31N 44°12' E 008°31'3 6.2
2018-Jun-10 03:01N 44°09' E 008°30'816.5
2018-Jun-10 02:31N 44°01' E 008°28'1120.1
2018-Jun-10 01:59N 43°53' E 008°18'2620.0
2018-Jun-10 00:40N 43°38' E 007°49'1020.2
2018-Jun-10 00:10N 43°31' E 007°38'720.2
2018-Jun-09 23:50N 43°26' E 007°31'620.1
2018-Jun-09 23:31N 43°22' E 007°25'1020.2
2018-Jun-09 23:00N 43°15' E 007°15'1020.2
2018-Jun-09 22:30N 43°10' E 007°03'2920.2
2018-Jun-09 21:04N 42°52' E 006°31'120.6
2018-Jun-09 21:00N 42°51' E 006°30'1020.4
2018-Jun-09 20:31N 42°44' E 006°20'3620.7
2018-Jun-09 18:45N 42°20' E 005°43'521.0
2018-Jun-09 18:30N 42°17' E 005°38'1021.0
2018-Jun-09 18:00N 42°10' E 005°28'1020.9
2018-Jun-09 17:30N 42°02' E 005°17'1021.1
2018-Jun-09 17:00N 41°56' E 005°06'1221.2
2018-Jun-09 16:25N 41°47' E 004°54'921.2
2018-Jun-09 16:00N 41°41' E 004°46'1521.3
2018-Jun-09 15:19N 41°31' E 004°31'2421.2
2018-Jun-09 14:11N 41°15' E 004°08'421.4
2018-Jun-09 14:00N 41°12' E 004°04'1121.4
2018-Jun-09 13:30N 41°05' E 003°53'1121.4
2018-Jun-09 13:00N 40°58' E 003°43'1121.5
2018-Jun-09 12:30N 40°51' E 003°32'1521.7
2018-Jun-09 11:48N 40°41' E 003°17'1821.4
2018-Jun-09 10:58N 40°28' E 002°60'1721.6
2018-Jun-09 10:11N 40°17' E 002°43'421.6
2018-Jun-09 10:00N 40°15' E 002°40'1121.6
2018-Jun-09 09:30N 40°07' E 002°29'1121.5
2018-Jun-09 09:00N 39°60' E 002°19'12221.2
2018-Jun-09 03:14N 38°36' E 000°24'721.2
2018-Jun-09 02:55N 38°31' E 000°19'921.5
2018-Jun-09 02:30N 38°24' E 000°12'1121.8
2018-Jun-09 02:00N 38°14' E 000°05'1121.7
2018-Jun-09 01:30N 38°05' W 000°02'1121.9
2018-Jun-09 00:59N 37°56' W 000°10'1121.8
2018-Jun-09 00:30N 37°47' W 000°18'1021.5
2018-Jun-09 00:00N 37°38' W 000°26'1121.5
2018-Jun-08 23:30N 37°30' W 000°34'1121.7
2018-Jun-08 23:00N 37°23' W 000°44'1121.8
2018-Jun-08 22:30N 37°16' W 000°55'2321.8
2018-Jun-08 21:27N 37°01' W 001°17'20021.2
2018-Jun-08 12:01N 35°59' W 005°13'023.9
2018-Jun-08 12:00N 35°59' W 005°13'1223.4
2018-Jun-08 11:31N 35°57' W 005°27'21918.3
2018-Jun-07 23:32N 37°36' W 009°32'021.2
2018-Jun-07 23:31N 37°36' W 009°31'1121.4
2018-Jun-07 23:00N 37°47' W 009°30'1020.6
2018-Jun-07 22:30N 37°57' W 009°28'1020.9
2018-Jun-07 22:01N 38°05' W 009°20'1020.7
2018-Jun-07 21:31N 38°13' W 009°12'919.0
2018-Jun-07 21:01N 38°21' W 009°04'714.9
2018-Jun-07 20:31N 38°27' W 008°58'510.2
2018-Jun-07 20:00N 38°31' W 008°54'1 2.1
2018-Jun-07 19:25N 38°31' W 008°53'0 0.0
2018-Jun-07 18:58N 38°31' W 008°53'0 0.0
2018-Jun-07 18:25N 38°31' W 008°53'0 0.0
2018-Jun-07 17:49N 38°31' W 008°53'0 0.0
2018-Jun-07 17:25N 38°31' W 008°53'0 0.0
2018-Jun-07 16:58N 38°31' W 008°53'0 0.0
2018-Jun-07 16:25N 38°31' W 008°53'0 0.0
2018-Jun-07 15:58N 38°31' W 008°53'0 0.0
2018-Jun-07 15:19N 38°31' W 008°53'0 0.0
2018-Jun-07 14:55N 38°31' W 008°53'0 0.0
2018-Jun-07 14:25N 38°31' W 008°53'0 0.0
2018-Jun-07 13:55N 38°31' W 008°53'0 0.0
2018-Jun-07 13:25N 38°31' W 008°53'0 0.0
2018-Jun-07 12:55N 38°31' W 008°53'0 0.0
2018-Jun-07 12:25N 38°31' W 008°53'0 0.0
2018-Jun-07 11:58N 38°31' W 008°53'0 0.0
2018-Jun-07 11:25N 38°31' W 008°53'0 0.0
2018-Jun-07 10:58N 38°31' W 008°53'0 0.0
2018-Jun-07 10:28N 38°31' W 008°53'0 0.0
2018-Jun-07 09:58N 38°31' W 008°53'0 0.0
2018-Jun-07 09:28N 38°31' W 008°53'0 0.0
2018-Jun-07 08:55N 38°31' W 008°53'0 0.0
2018-Jun-07 08:28N 38°31' W 008°53'0 0.0
2018-Jun-07 07:55N 38°31' W 008°53'0 0.0
2018-Jun-07 07:28N 38°31' W 008°53'0 0.4
2018-Jun-07 07:00N 38°31' W 008°53'2 4.5
2018-Jun-07 06:31N 38°30' W 008°55'612.1
2018-Jun-07 06:00N 38°25' W 009°00'612.6
2018-Jun-07 05:30N 38°21' W 009°06'917.3
2018-Jun-07 05:00N 38°19' W 009°17'1020.9
2018-Jun-07 04:30N 38°19' W 009°30'1121.1
2018-Jun-07 04:00N 38°19' W 009°43'1020.8
2018-Jun-07 03:30N 38°18' W 009°57'1020.7
2018-Jun-07 03:00N 38°18' W 010°10'1120.6
2018-Jun-07 02:29N 38°17' W 010°24'1120.6
2018-Jun-07 01:58N 38°17' W 010°37'1120.5
2018-Jun-07 01:27N 38°16' W 010°50'56320.7
2018-Jun-05 22:17N 37°09' W 022°37'1220.5
2018-Jun-05 21:42N 37°06' W 022°52'520.8
2018-Jun-05 21:27N 37°05' W 022°58'920.8
2018-Jun-05 21:00N 37°03' W 023°09'1520.9
2018-Jun-05 20:17N 37°01' W 023°28'621.0
2018-Jun-05 20:00N 36°60' W 023°35'1121.1
2018-Jun-05 19:31N 36°58' W 023°48'1121.1
2018-Jun-05 19:00N 36°56' W 024°01'1020.9
2018-Jun-05 18:30N 36°54' W 024°14'1020.9
2018-Jun-05 18:00N 36°52' W 024°27'1121.1
2018-Jun-05 17:31N 36°50' W 024°40'1121.2
2018-Jun-05 17:00N 36°47' W 024°52'1020.9
2018-Jun-05 16:30N 36°45' W 025°05'1121.2
2018-Jun-05 16:01N 36°42' W 025°18'1020.8
2018-Jun-05 15:30N 36°40' W 025°31'1020.4
2018-Jun-05 15:00N 36°38' W 025°43'1020.4
2018-Jun-05 14:30N 36°36' W 025°56'1020.3
2018-Jun-05 14:00N 36°34' W 026°08'1020.7
2018-Jun-05 13:30N 36°32' W 026°21'2120.5
2018-Jun-05 12:29N 36°27' W 026°46'1020.5
2018-Jun-05 12:00N 36°25' W 026°58'1020.7
2018-Jun-05 11:30N 36°22' W 027°10'1020.6
2018-Jun-05 11:00N 36°20' W 027°23'1120.7
2018-Jun-05 10:29N 36°17' W 027°36'1021.0
2018-Jun-05 10:00N 36°15' W 027°48'1121.0
2018-Jun-05 09:28N 36°13' W 028°01'1020.8
2018-Jun-05 09:00N 36°10' W 028°13'1120.9
2018-Jun-05 08:29N 36°08' W 028°26'3121.1
2018-Jun-05 07:00N 35°60' W 029°04'  

Dump ship's entire track history